Time;durP1;ratioP1;P1;durP2;ratioP2;P2;SDS_P1;SDS_P2;PMS_P1;PMS_P2;Temp;Humidity;BMP_temperature;BMP_pressure;BME280_temperature;BME280_humidity;BME280_pressure;Samples;Min_cycle;Max_cycle;Signal;HPM_P1;HPM_P2
2023/12/03 00:01:06;;;;;;;7.23;5.57;;;;;;;;;;5087469;28;20458;-52
2023/12/03 00:03:33;;;;;;;8.67;6.50;;;;;;;;;;5087485;28;20444;-52
2023/12/03 00:06:01;;;;;;;7.57;5.80;;;;;;;;;;5087063;28;20470;-54
2023/12/03 00:08:28;;;;;;;7.77;5.10;;;;;;;;;;5087080;28;20505;-52
2023/12/03 00:10:55;;;;;;;6.20;4.80;;;;;;;;;;5087036;28;20501;-52
2023/12/03 00:13:23;;;;;;;8.67;5.60;;;;;;;;;;5086915;28;20559;-54
2023/12/03 00:15:51;;;;;;;9.33;6.00;;;;;;;;;;5087037;28;20465;-54
2023/12/03 00:18:19;;;;;;;6.53;5.70;;;;;;;;;;5086710;28;20461;-55
2023/12/03 00:20:46;;;;;;;6.87;5.20;;;;;;;;;;5086681;28;20447;-54
2023/12/03 00:23:13;;;;;;;5.60;4.40;;;;;;;;;;5086799;28;20451;-53
2023/12/03 00:25:41;;;;;;;6.83;4.60;;;;;;;;;;5086873;28;20516;-52
2023/12/03 00:28:08;;;;;;;5.10;4.60;;;;;;;;;;5086366;28;20447;-52
2023/12/03 00:30:35;;;;;;;6.53;4.80;;;;;;;;;;5086889;28;20451;-54
2023/12/03 00:33:04;;;;;;;10.00;5.50;;;;;;;;;;5084021;28;20482;-52
2023/12/03 00:35:32;;;;;;;7.30;4.80;;;;;;;;;;5053257;28;20467;-53
2023/12/03 00:37:59;;;;;;;5.80;4.93;;;;;;;;;;5053485;28;20439;-52
2023/12/03 00:40:26;;;;;;;5.93;5.20;;;;;;;;;;5053551;28;20505;-52
2023/12/03 00:42:55;;;;;;;9.63;7.20;;;;;;;;;;5062795;28;20490;-52
2023/12/03 00:45:22;;;;;;;7.87;6.90;;;;;;;;;;5072401;28;20498;-55
2023/12/03 00:47:49;;;;;;;9.30;6.70;;;;;;;;;;5071683;28;20446;-52
2023/12/03 00:52:52;;;;;;;9.27;6.47;;;;;;;;;;5088515;27;20573;-52
2023/12/03 00:55:19;;;;;;;8.60;6.20;;;;;;;;;;5088194;28;20590;-53
2023/12/03 00:57:47;;;;;;;9.93;7.10;;;;;;;;;;5087605;28;20449;-54
2023/12/03 01:00:15;;;;;;;13.23;7.40;;;;;;;;;;5087909;28;20443;-52
2023/12/03 01:02:42;;;;;;;9.00;6.57;;;;;;;;;;5087918;28;20449;-51
2023/12/03 01:05:09;;;;;;;11.53;7.50;;;;;;;;;;5087437;28;20465;-52
2023/12/03 01:07:37;;;;;;;10.73;7.43;;;;;;;;;;5087605;28;20638;-51
2023/12/03 01:10:06;;;;;;;10.00;6.67;;;;;;;;;;5087816;28;20461;-51
2023/12/03 01:12:33;;;;;;;9.20;7.00;;;;;;;;;;5081405;28;20486;-54
2023/12/03 01:15:00;;;;;;;9.67;7.40;;;;;;;;;;5086102;28;20534;-52
2023/12/03 01:17:28;;;;;;;9.77;7.03;;;;;;;;;;5087688;28;20445;-55
2023/12/03 01:19:55;;;;;;;8.40;7.13;;;;;;;;;;5087203;28;20922;-53
2023/12/03 01:22:22;;;;;;;9.00;7.00;;;;;;;;;;5087876;28;20446;-53
2023/12/03 01:24:50;;;;;;;10.37;8.03;;;;;;;;;;5087544;28;20485;-56
2023/12/03 01:27:18;;;;;;;10.80;7.43;;;;;;;;;;5087449;28;20455;-51
2023/12/03 01:29:46;;;;;;;9.40;7.23;;;;;;;;;;5086910;28;20445;-53
2023/12/03 01:32:13;;;;;;;10.23;8.00;;;;;;;;;;5087072;28;20485;-51
2023/12/03 01:34:40;;;;;;;10.73;7.63;;;;;;;;;;5071392;28;20474;-52
2023/12/03 01:37:08;;;;;;;10.70;7.70;;;;;;;;;;5067705;28;20471;-51
2023/12/03 01:39:35;;;;;;;9.63;7.13;;;;;;;;;;5066972;28;20441;-51
2023/12/03 01:42:02;;;;;;;10.17;7.60;;;;;;;;;;5070028;28;20440;-50
2023/12/03 01:44:31;;;;;;;12.20;7.83;;;;;;;;;;5099755;22;20464;-51
2023/12/03 01:49:34;;;;;;;12.40;8.60;;;;;;;;;;5086939;27;21094;-51
2023/12/03 01:52:02;;;;;;;11.63;8.40;;;;;;;;;;5087461;28;20443;-51
2023/12/03 01:57:09;;;;;;;10.20;7.50;;;;;;;;;;5087765;27;20578;-54
2023/12/03 01:59:36;;;;;;;8.30;7.30;;;;;;;;;;5087373;28;20456;-53
2023/12/03 02:02:04;;;;;;;10.77;7.53;;;;;;;;;;5087600;28;20463;-53
2023/12/03 02:04:31;;;;;;;10.57;7.37;;;;;;;;;;5087536;28;20448;-50
2023/12/03 02:06:58;;;;;;;11.20;7.83;;;;;;;;;;5087197;28;20949;-53
2023/12/03 02:09:26;;;;;;;11.60;7.90;;;;;;;;;;5087012;28;20448;-54
2023/12/03 02:11:53;;;;;;;10.23;7.23;;;;;;;;;;5087074;28;20910;-53
2023/12/03 02:14:22;;;;;;;10.00;8.17;;;;;;;;;;5087732;28;20465;-54
2023/12/03 02:16:50;;;;;;;9.70;7.53;;;;;;;;;;5087239;28;20506;-53
2023/12/03 02:19:17;;;;;;;11.00;7.90;;;;;;;;;;5087107;28;20852;-53
2023/12/03 02:21:44;;;;;;;13.57;8.60;;;;;;;;;;5087299;28;20476;-53
2023/12/03 02:24:13;;;;;;;13.50;7.80;;;;;;;;;;5087154;28;20447;-53
2023/12/03 02:26:40;;;;;;;12.40;8.17;;;;;;;;;;5087040;28;20952;-53
2023/12/03 02:29:08;;;;;;;11.53;7.50;;;;;;;;;;5079455;28;20432;-53
2023/12/03 02:31:35;;;;;;;11.83;7.83;;;;;;;;;;5087085;28;20999;-54
2023/12/03 02:34:07;;;;;;;8.43;6.43;;;;;;;;;;5076733;28;20473;-53
2023/12/03 02:36:35;;;;;;;8.57;6.43;;;;;;;;;;5066980;28;20570;-53
2023/12/03 02:39:02;;;;;;;9.17;7.00;;;;;;;;;;5067135;28;20457;-53
2023/12/03 02:41:31;;;;;;;9.63;7.80;;;;;;;;;;5073388;28;20446;-53
2023/12/03 02:46:32;;;;;;;10.47;7.43;;;;;;;;;;5087748;27;20641;-53
2023/12/03 02:48:59;;;;;;;9.43;7.40;;;;;;;;;;5086913;28;20451;-53
2023/12/03 02:51:27;;;;;;;9.90;7.73;;;;;;;;;;5087637;28;20450;-53
2023/12/03 02:53:54;;;;;;;9.17;7.47;;;;;;;;;;5087529;28;20449;-53
2023/12/03 02:56:21;;;;;;;10.23;7.60;;;;;;;;;;5087417;28;20495;-53
2023/12/03 02:58:49;;;;;;;9.40;7.70;;;;;;;;;;5087153;28;20444;-53
2023/12/03 03:03:49;;;;;;;11.10;7.50;;;;;;;;;;5128344;27;20569;-51
2023/12/03 03:06:17;;;;;;;8.97;7.50;;;;;;;;;;5128694;28;20464;-51
2023/12/03 03:08:44;;;;;;;8.80;7.23;;;;;;;;;;5127994;27;20934;-51
2023/12/03 03:11:11;;;;;;;9.43;8.23;;;;;;;;;;5128421;27;20442;-51
2023/12/03 03:13:39;;;;;;;11.17;7.70;;;;;;;;;;5128374;28;20510;-51
2023/12/03 03:16:06;;;;;;;10.07;7.27;;;;;;;;;;5128069;27;20473;-50
2023/12/03 03:18:36;;;;;;;10.50;8.23;;;;;;;;;;5127817;27;20435;-50
2023/12/03 03:28:50;;;;;;;10.60;6.90;;;;;;;;;;5087129;27;20994;-53
2023/12/03 03:31:17;;;;;;;9.43;7.47;;;;;;;;;;5087909;28;20520;-53
2023/12/03 03:33:44;;;;;;;9.20;7.80;;;;;;;;;;5087423;28;20436;-53
2023/12/03 03:36:14;;;;;;;12.20;7.93;;;;;;;;;;5067983;28;20483;-51
2023/12/03 03:38:41;;;;;;;10.60;7.10;;;;;;;;;;5067624;28;20459;-51
2023/12/03 03:41:09;;;;;;;13.47;7.53;;;;;;;;;;5067843;28;20459;-50
2023/12/03 03:43:36;;;;;;;11.00;7.67;;;;;;;;;;5082928;28;20450;-51
2023/12/03 03:51:16;;;;;;;9.63;7.53;;;;;;;;;;5087689;27;20630;-50
2023/12/03 03:53:43;;;;;;;11.17;7.40;;;;;;;;;;5087565;28;20538;-50
2023/12/03 04:01:21;;;;;;;9.90;7.70;;;;;;;;;;5128592;27;20636;-51
2023/12/03 04:11:31;;;;;;;9.70;7.10;;;;;;;;;;5087642;27;20648;-52
2023/12/03 04:19:06;;;;;;;8.10;7.27;;;;;;;;;;5087275;27;20642;-50
2023/12/03 04:21:34;;;;;;;7.60;6.00;;;;;;;;;;5087482;28;20447;-50
2023/12/03 04:24:01;;;;;;;8.40;5.07;;;;;;;;;;5087442;28;20447;-51
2023/12/03 04:26:28;;;;;;;7.40;5.17;;;;;;;;;;5087553;28;20464;-51
2023/12/03 04:28:56;;;;;;;7.67;5.30;;;;;;;;;;5086945;28;20440;-51
2023/12/03 04:34:00;;;;;;;9.83;6.77;;;;;;;;;;5087653;27;21200;-51
2023/12/03 04:36:27;;;;;;;7.70;5.37;;;;;;;;;;5087578;28;20974;-51
2023/12/03 04:38:55;;;;;;;8.33;5.90;;;;;;;;;;5087128;28;20905;-51
2023/12/03 04:43:58;;;;;;;9.37;5.77;;;;;;;;;;5107789;27;20565;-51
2023/12/03 04:46:25;;;;;;;7.70;5.43;;;;;;;;;;5107824;28;20471;-51
2023/12/03 04:48:53;;;;;;;7.33;6.20;;;;;;;;;;5107463;28;20449;-50
2023/12/03 04:51:19;;;;;;;8.20;6.00;;;;;;;;;;5107874;28;20447;-51
2023/12/03 04:53:46;;;;;;;9.27;5.43;;;;;;;;;;5107571;28;20439;-51
2023/12/03 05:01:21;;;;;;;6.33;4.10;;;;;;;;;;5087758;27;20575;-51
2023/12/03 05:03:48;;;;;;;6.00;3.57;;;;;;;;;;5087186;28;20505;-52
2023/12/03 05:06:16;;;;;;;6.50;4.10;;;;;;;;;;5087632;28;20459;-53
2023/12/03 05:08:43;;;;;;;5.60;4.80;;;;;;;;;;5087323;28;20855;-52
2023/12/03 05:11:10;;;;;;;9.27;3.70;;;;;;;;;;5087481;28;20436;-53
2023/12/03 05:13:38;;;;;;;7.10;4.37;;;;;;;;;;5087761;28;20872;-52
2023/12/03 05:16:05;;;;;;;7.37;5.67;;;;;;;;;;5087201;28;20972;-53
2023/12/03 05:18:34;;;;;;;7.80;4.90;;;;;;;;;;5087172;28;20513;-52
2023/12/03 05:21:01;;;;;;;8.00;5.23;;;;;;;;;;5086953;28;20483;-50
2023/12/03 05:23:29;;;;;;;6.50;4.80;;;;;;;;;;5087101;28;20789;-53
2023/12/03 05:25:57;;;;;;;7.00;5.17;;;;;;;;;;5087053;28;20471;-53
2023/12/03 05:28:24;;;;;;;6.70;5.67;;;;;;;;;;5086679;28;20443;-53
2023/12/03 05:30:52;;;;;;;8.47;5.20;;;;;;;;;;5087021;28;20514;-53
2023/12/03 05:33:19;;;;;;;7.10;5.90;;;;;;;;;;5082287;28;20939;-53
2023/12/03 05:35:48;;;;;;;6.70;5.07;;;;;;;;;;5067195;28;20483;-53
2023/12/03 05:38:15;;;;;;;6.67;5.20;;;;;;;;;;5067146;28;20448;-53
2023/12/03 05:40:42;;;;;;;9.63;6.40;;;;;;;;;;5067251;28;20547;-54
2023/12/03 05:43:09;;;;;;;8.07;4.90;;;;;;;;;;5070311;28;20505;-53
2023/12/03 05:45:37;;;;;;;7.00;5.63;;;;;;;;;;5086893;28;20469;-53
2023/12/03 05:48:04;;;;;;;6.17;4.60;;;;;;;;;;5087024;28;20463;-53
2023/12/03 06:03:21;;;;;;;8.03;5.40;;;;;;;;;;5087762;27;20640;-54
2023/12/03 06:05:49;;;;;;;6.57;4.90;;;;;;;;;;5087446;28;20464;-53
2023/12/03 06:08:16;;;;;;;6.20;5.10;;;;;;;;;;5087450;28;20443;-53
2023/12/03 06:13:17;;;;;;;8.33;5.50;;;;;;;;;;5087581;27;20634;-53
2023/12/03 06:15:44;;;;;;;5.63;4.50;;;;;;;;;;5087737;28;20479;-54
2023/12/03 06:18:12;;;;;;;6.87;4.67;;;;;;;;;;5087244;28;20956;-53
2023/12/03 06:28:24;;;;;;;6.53;4.63;;;;;;;;;;5096851;27;20636;-53
2023/12/03 06:33:27;;;;;;;7.23;5.07;;;;;;;;;;5096542;27;20657;-51
2023/12/03 06:38:28;;;;;;;6.57;4.00;;;;;;;;;;5096442;27;21064;-53
2023/12/03 06:40:55;;;;;;;7.47;4.13;;;;;;;;;;5095508;28;20600;-53
2023/12/03 06:43:22;;;;;;;4.97;3.77;;;;;;;;;;5097984;28;20437;-53
2023/12/03 06:45:50;;;;;;;6.17;4.30;;;;;;;;;;5083627;28;20463;-53
2023/12/03 06:48:17;;;;;;;6.30;4.80;;;;;;;;;;5077882;28;20497;-53
2023/12/03 06:55:52;;;;;;;4.47;3.40;;;;;;;;;;5082203;27;20665;-50
2023/12/03 07:00:52;;;;;;;7.00;5.00;;;;;;;;;;5117437;27;20639;-53
2023/12/03 07:03:19;;;;;;;8.80;6.20;;;;;;;;;;5096982;28;20439;-53
2023/12/03 07:08:20;;;;;;;4.63;4.13;;;;;;;;;;5097833;27;20644;-53
2023/12/03 07:18:30;;;;;;;5.70;3.97;;;;;;;;;;5096907;27;20610;-52
2023/12/03 07:20:58;;;;;;;4.53;3.67;;;;;;;;;;5082731;28;20442;-53
2023/12/03 07:28:34;;;;;;;15.37;9.50;;;;;;;;;;5096560;27;20577;-53
2023/12/03 07:31:01;;;;;;;11.10;7.50;;;;;;;;;;5082694;28;20440;-53
2023/12/03 07:33:28;;;;;;;8.10;7.07;;;;;;;;;;5084111;28;20987;-53
2023/12/03 07:35:56;;;;;;;7.57;5.57;;;;;;;;;;5078043;28;20457;-53
2023/12/03 07:38:23;;;;;;;11.33;8.17;;;;;;;;;;5074574;28;20437;-54
2023/12/03 07:40:51;;;;;;;8.80;7.20;;;;;;;;;;5075280;28;20493;-53
2023/12/03 07:43:18;;;;;;;9.00;7.20;;;;;;;;;;5075671;28;20822;-53
2023/12/03 07:50:58;;;;;;;12.70;8.80;;;;;;;;;;5117495;27;20567;-55
2023/12/03 07:53:26;;;;;;;10.03;6.20;;;;;;;;;;5118245;27;20439;-53
2023/12/03 08:01:00;;;;;;;12.20;8.20;;;;;;;;;;5108681;27;20588;-52
2023/12/03 08:03:27;;;;;;;6.83;4.77;;;;;;;;;;5109054;28;20524;-51
2023/12/03 08:05:55;;;;;;;8.10;5.27;;;;;;;;;;5108869;28;20489;-53
2023/12/03 08:39:16;;;;;;;5.77;4.67;;;;;;;;;;5083291;27;21290;-52
2023/12/03 08:41:43;;;;;;;23.23;13.67;;;;;;;;;;5067269;28;20437;-51
2023/12/03 08:56:59;;;;;;;7.00;5.07;;;;;;;;;;5084430;27;21123;-51
2023/12/03 09:02:00;;;;;;;5.82;4.25;;;;;;;;;;5083282;27;20446;-52
2023/12/03 09:04:27;;;;;;;5.70;3.80;;;;;;;;;;5077203;28;20296;-53
2023/12/03 09:06:54;;;;;;;5.73;4.33;;;;;;;;;;5057976;28;20449;-53
2023/12/03 09:09:22;;;;;;;5.80;4.70;;;;;;;;;;5056123;28;20444;-52
2023/12/03 09:11:49;;;;;;;5.70;4.57;;;;;;;;;;5056040;28;20916;-50
2023/12/03 09:14:16;;;;;;;8.80;5.27;;;;;;;;;;5056938;28;20742;-53
2023/12/03 09:16:44;;;;;;;7.17;4.73;;;;;;;;;;5050989;28;20975;-52
2023/12/03 09:19:12;;;;;;;8.93;6.17;;;;;;;;;;5056335;28;20439;-54
2023/12/03 09:21:40;;;;;;;5.00;3.63;;;;;;;;;;5055591;28;20492;-51
2023/12/03 09:26:43;;;;;;;3.53;2.80;;;;;;;;;;5074143;27;20588;-53
2023/12/03 09:34:17;;;;;;;9.33;5.97;;;;;;;;;;5084462;27;21220;-52
2023/12/03 09:36:45;;;;;;;7.57;5.50;;;;;;;;;;5064954;28;20464;-54
2023/12/03 09:39:12;;;;;;;5.43;4.70;;;;;;;;;;5063857;28;20455;-53
2023/12/03 09:41:43;;;;;;;8.53;5.93;;;;;;;;;;5064683;28;20536;-52
2023/12/03 09:49:30;;;;;;;9.33;6.60;;;;;;;;;;5079973;27;20599;-52
2023/12/03 10:10:04;;;;;;;7.47;5.40;;;;;;;;;;5113956;27;20586;-52
2023/12/03 10:17:45;;;;;;;7.10;5.70;;;;;;;;;;5063739;27;21165;-53
2023/12/03 10:33:11;;;;;;;6.00;4.90;;;;;;;;;;5083790;27;20660;-54
2023/12/03 10:35:38;;;;;;;4.63;3.93;;;;;;;;;;5079052;28;20464;-53
2023/12/03 10:58:48;;;;;;;4.33;3.63;;;;;;;;;;5083085;27;20594;-53
2023/12/03 11:03:55;;;;;;;5.70;4.37;;;;;;;;;;5082489;27;20640;-55
2023/12/03 11:06:24;;;;;;;4.40;3.40;;;;;;;;;;5070320;28;20917;-54
2023/12/03 11:08:52;;;;;;;5.10;3.37;;;;;;;;;;5065067;28;20571;-56
2023/12/03 11:11:20;;;;;;;3.53;2.97;;;;;;;;;;5064842;28;20900;-55
2023/12/03 11:16:22;;;;;;;3.97;3.17;;;;;;;;;;5159812;27;20599;-55
2023/12/03 11:18:51;;;;;;;3.50;2.50;;;;;;;;;;5164802;27;20472;-52
2023/12/03 11:21:21;;;;;;;3.77;3.23;;;;;;;;;;5166507;27;20911;-55
2023/12/03 11:26:34;;;;;;;6.80;3.63;;;;;;;;;;5069019;27;20628;-53
2023/12/03 11:29:01;;;;;;;4.40;3.70;;;;;;;;;;5062147;28;20448;-54
2023/12/03 11:31:28;;;;;;;5.93;4.23;;;;;;;;;;5056733;28;20468;-53
2023/12/03 11:33:57;;;;;;;4.07;3.53;;;;;;;;;;5064004;28;20450;-56
2023/12/03 11:36:35;;;;;;;4.40;3.00;;;;;;;;;;5060518;28;20486;-53
2023/12/03 11:39:02;;;;;;;3.80;3.20;;;;;;;;;;5056769;28;20877;-55
2023/12/03 11:41:37;;;;;;;5.93;4.40;;;;;;;;;;5054436;28;20496;-55
2023/12/03 11:49:19;;;;;;;7.03;6.20;;;;;;;;;;5084497;27;20576;-54
2023/12/03 11:51:47;;;;;;;7.20;5.50;;;;;;;;;;5084850;28;20441;-52
2023/12/03 11:59:27;;;;;;;7.80;6.03;;;;;;;;;;5082051;27;1316898;-52
2023/12/03 12:01:54;;;;;;;8.60;7.20;;;;;;;;;;5103555;28;20454;-53
2023/12/03 12:04:22;;;;;;;8.90;7.43;;;;;;;;;;5104619;28;20438;-53
2023/12/03 12:09:23;;;;;;;11.87;8.03;;;;;;;;;;5040356;27;20647;-53
2023/12/03 12:11:51;;;;;;;12.40;8.00;;;;;;;;;;5032424;28;20445;-52
2023/12/03 12:14:19;;;;;;;9.40;7.63;;;;;;;;;;5033436;28;20813;-54
2023/12/03 12:16:46;;;;;;;8.50;7.50;;;;;;;;;;5010760;28;21001;-56
2023/12/03 12:19:14;;;;;;;11.33;8.20;;;;;;;;;;5029309;28;20990;-55
2023/12/03 12:21:53;;;;;;;9.50;7.50;;;;;;;;;;5005360;28;20463;-53
2023/12/03 12:24:21;;;;;;;8.03;7.20;;;;;;;;;;5014394;28;20502;-55
2023/12/03 12:26:49;;;;;;;8.73;7.83;;;;;;;;;;5021352;28;20463;-54
2023/12/03 12:29:17;;;;;;;8.17;6.90;;;;;;;;;;5018955;28;20434;-53
2023/12/03 12:31:44;;;;;;;7.37;6.67;;;;;;;;;;5022934;28;20998;-54
2023/12/03 12:34:12;;;;;;;8.77;6.60;;;;;;;;;;5021295;28;20861;-55
2023/12/03 12:36:40;;;;;;;7.33;6.57;;;;;;;;;;5021665;28;20954;-54
2023/12/03 12:39:07;;;;;;;7.33;6.30;;;;;;;;;;5021171;28;20521;-54
2023/12/03 12:41:38;;;;;;;9.40;7.10;;;;;;;;;;5015152;28;20448;-53
2023/12/03 12:44:07;;;;;;;7.70;5.90;;;;;;;;;;5021474;28;20441;-55
2023/12/03 12:46:34;;;;;;;7.97;6.30;;;;;;;;;;5018280;28;20464;-54
2023/12/03 12:49:14;;;;;;;7.90;7.10;;;;;;;;;;5020795;28;20478;-54
2023/12/03 12:51:41;;;;;;;7.20;6.50;;;;;;;;;;5019510;28;20501;-52
2023/12/03 12:54:08;;;;;;;8.40;7.50;;;;;;;;;;5021212;28;20444;-53
2023/12/03 12:56:36;;;;;;;8.90;7.07;;;;;;;;;;5025448;28;20827;-52
2023/12/03 12:59:03;;;;;;;6.57;5.87;;;;;;;;;;5040229;28;20485;-56
2023/12/03 13:01:32;;;;;;;10.90;7.67;;;;;;;;;;5007551;28;20455;-54
2023/12/03 13:03:59;;;;;;;13.50;9.47;;;;;;;;;;5005577;28;20439;-54
2023/12/03 13:06:27;;;;;;;14.13;10.00;;;;;;;;;;5003990;28;20472;-54
2023/12/03 13:08:54;;;;;;;14.63;9.90;;;;;;;;;;5003730;28;20538;-54
2023/12/03 13:11:23;;;;;;;12.07;9.77;;;;;;;;;;5004780;28;20911;-54
2023/12/03 13:13:50;;;;;;;11.70;9.97;;;;;;;;;;5004328;28;21010;-54
2023/12/03 13:16:18;;;;;;;11.00;9.83;;;;;;;;;;5004524;28;20980;-56
2023/12/03 13:18:46;;;;;;;13.43;9.33;;;;;;;;;;5000927;28;20497;-52
2023/12/03 13:21:14;;;;;;;11.97;9.77;;;;;;;;;;4988284;28;20994;-55
2023/12/03 13:23:41;;;;;;;10.07;8.37;;;;;;;;;;4989769;28;20507;-55
2023/12/03 13:26:09;;;;;;;14.63;9.50;;;;;;;;;;4998860;28;20462;-54
2023/12/03 13:28:36;;;;;;;9.47;8.43;;;;;;;;;;5000832;28;20527;-55
2023/12/03 13:31:04;;;;;;;11.93;9.23;;;;;;;;;;5004969;28;20504;-54
2023/12/03 13:33:31;;;;;;;10.73;8.40;;;;;;;;;;5004434;28;20449;-55
2023/12/03 13:36:00;;;;;;;12.10;8.77;;;;;;;;;;4991225;28;20460;-54
2023/12/03 13:38:27;;;;;;;11.67;9.30;;;;;;;;;;4990199;28;20483;-56
2023/12/03 13:40:56;;;;;;;9.03;8.03;;;;;;;;;;4990750;28;20445;-53
2023/12/03 13:43:23;;;;;;;11.40;8.40;;;;;;;;;;4991299;28;20451;-55
2023/12/03 13:45:51;;;;;;;9.33;8.00;;;;;;;;;;5045989;22;20498;-87
2023/12/03 13:48:18;;;;;;;10.93;8.90;;;;;;;;;;5073315;28;20554;-87
2023/12/03 13:50:45;;;;;;;10.57;8.00;;;;;;;;;;5068344;28;20441;-88
2023/12/03 13:53:14;;;;;;;9.43;7.40;;;;;;;;;;5066915;28;20449;-88
2023/12/03 13:55:42;;;;;;;14.00;9.17;;;;;;;;;;5072984;28;20447;-88
2023/12/03 13:58:09;;;;;;;14.00;9.03;;;;;;;;;;5072769;28;20479;-88
2023/12/03 14:00:37;;;;;;;15.30;10.37;;;;;;;;;;5072678;28;20452;-88
2023/12/03 14:03:04;;;;;;;12.67;10.00;;;;;;;;;;5071271;28;20433;-88
2023/12/03 14:05:31;;;;;;;13.43;8.80;;;;;;;;;;5072635;28;20962;-88
2023/12/03 14:07:59;;;;;;;10.17;6.70;;;;;;;;;;5071093;28;20456;-88
2023/12/03 14:10:29;;;;;;;11.20;7.70;;;;;;;;;;5072904;28;20455;-89
2023/12/03 14:12:56;;;;;;;10.40;7.40;;;;;;;;;;5072761;28;20495;-88
2023/12/03 14:15:24;;;;;;;9.57;7.23;;;;;;;;;;5073144;28;20459;-88
2023/12/03 14:17:51;;;;;;;8.13;6.73;;;;;;;;;;5072048;28;20545;-89
2023/12/03 14:20:18;;;;;;;8.03;6.43;;;;;;;;;;5072805;28;20446;-88
2023/12/03 14:22:46;;;;;;;8.80;6.20;;;;;;;;;;5073082;28;20459;-88
2023/12/03 14:25:13;;;;;;;6.77;5.70;;;;;;;;;;5073733;28;20822;-88
2023/12/03 14:27:44;;;;;;;5.83;4.67;;;;;;;;;;5073681;28;20441;-88
2023/12/03 14:30:12;;;;;;;6.43;4.60;;;;;;;;;;5073779;28;20516;-88
2023/12/03 14:32:40;;;;;;;7.70;4.27;;;;;;;;;;5072775;28;20474;-88
2023/12/03 14:35:08;;;;;;;7.23;5.13;;;;;;;;;;5073638;28;20471;-88
2023/12/03 14:37:35;;;;;;;9.03;3.87;;;;;;;;;;5073507;28;20933;-88
2023/12/03 14:40:03;;;;;;;5.70;4.63;;;;;;;;;;5073214;28;20475;-88
2023/12/03 14:42:30;;;;;;;7.07;5.17;;;;;;;;;;5073473;28;20825;-88
2023/12/03 14:44:59;;;;;;;6.13;4.40;;;;;;;;;;5073322;28;20960;-88
2023/12/03 14:47:27;;;;;;;5.47;3.93;;;;;;;;;;5073233;28;20462;-89
2023/12/03 14:49:54;;;;;;;8.20;4.53;;;;;;;;;;5073398;28;20441;-88
2023/12/03 14:52:22;;;;;;;5.67;4.63;;;;;;;;;;5073194;28;20480;-89
2023/12/03 14:54:49;;;;;;;6.63;4.10;;;;;;;;;;5073180;28;20451;-88
2023/12/03 14:57:16;;;;;;;7.50;5.23;;;;;;;;;;5073342;28;20444;-89
2023/12/03 14:59:44;;;;;;;8.17;5.90;;;;;;;;;;5072678;28;20479;-88
2023/12/03 15:02:12;;;;;;;9.27;8.37;;;;;;;;;;5070014;28;20489;-89
2023/12/03 15:04:40;;;;;;;7.17;6.47;;;;;;;;;;5068994;28;20819;-88
2023/12/03 15:07:07;;;;;;;6.90;6.03;;;;;;;;;;5072499;28;20464;-89
2023/12/03 15:09:35;;;;;;;5.20;4.70;;;;;;;;;;5072299;28;20996;-89
2023/12/03 15:12:03;;;;;;;6.30;5.70;;;;;;;;;;5071919;28;20990;-89
2023/12/03 15:14:31;;;;;;;6.60;5.43;;;;;;;;;;5072199;28;20861;-89
2023/12/03 15:16:59;;;;;;;4.70;3.80;;;;;;;;;;5071435;28;20494;-89
2023/12/03 15:19:29;;;;;;;5.27;4.50;;;;;;;;;;5072438;28;20538;-89
2023/12/03 15:21:56;;;;;;;16.30;12.23;;;;;;;;;;5072148;28;20474;-89
2023/12/03 15:24:23;;;;;;;14.53;11.40;;;;;;;;;;5072513;28;20449;-88
2023/12/03 15:26:51;;;;;;;8.60;6.00;;;;;;;;;;5072188;28;20441;-89
2023/12/03 15:29:18;;;;;;;9.43;6.47;;;;;;;;;;5072265;28;20444;-88
2023/12/03 15:31:45;;;;;;;9.43;6.50;;;;;;;;;;5070573;28;20836;-89
2023/12/03 15:34:13;;;;;;;7.27;5.30;;;;;;;;;;5071081;28;20445;-89
2023/12/03 15:36:41;;;;;;;5.30;4.27;;;;;;;;;;5073069;28;20456;-89
2023/12/03 15:39:09;;;;;;;3.80;3.40;;;;;;;;;;5072074;28;20518;-89
2023/12/03 15:41:36;;;;;;;4.00;3.37;;;;;;;;;;5072105;28;20477;-88
2023/12/03 15:44:04;;;;;;;3.83;3.33;;;;;;;;;;5071813;28;20446;-89
2023/12/03 15:46:31;;;;;;;3.50;3.00;;;;;;;;;;5071953;28;20448;-89
2023/12/03 15:48:58;;;;;;;7.43;5.63;;;;;;;;;;5070134;28;20452;-89
2023/12/03 15:51:27;;;;;;;6.37;5.20;;;;;;;;;;5071902;28;20472;-88
2023/12/03 15:53:56;;;;;;;10.10;7.20;;;;;;;;;;5070337;28;20473;-88
2023/12/03 15:56:23;;;;;;;13.30;9.63;;;;;;;;;;5071751;28;20436;-89
2023/12/03 15:58:51;;;;;;;15.30;7.93;;;;;;;;;;5071059;28;20485;-89
2023/12/03 16:01:18;;;;;;;10.83;6.97;;;;;;;;;;5070985;28;20845;-90
2023/12/03 16:03:45;;;;;;;7.17;5.53;;;;;;;;;;5071403;28;20440;-89
2023/12/03 16:06:13;;;;;;;12.70;7.30;;;;;;;;;;5071808;28;20447;-89
2023/12/03 16:08:40;;;;;;;18.97;10.40;;;;;;;;;;5069455;28;20433;-89
2023/12/03 16:11:09;;;;;;;18.67;11.47;;;;;;;;;;5071201;28;20472;-90
2023/12/03 16:13:37;;;;;;;12.30;7.80;;;;;;;;;;5071483;28;20448;-89
2023/12/03 16:16:05;;;;;;;6.37;4.50;;;;;;;;;;5070814;28;20444;-88
2023/12/03 16:18:32;;;;;;;5.10;3.67;;;;;;;;;;5071201;28;22408;-89
2023/12/03 16:21:00;;;;;;;4.47;3.80;;;;;;;;;;5069722;28;20464;-89
2023/12/03 16:23:27;;;;;;;4.77;3.60;;;;;;;;;;5071439;28;21001;-89
2023/12/03 16:28:30;;;;;;;3.60;3.27;;;;;;;;;;5087028;27;20575;-51
2023/12/03 16:30:58;;;;;;;4.80;3.97;;;;;;;;;;5076074;28;20457;-51
2023/12/03 16:36:01;;;;;;;5.03;4.33;;;;;;;;;;5077379;27;20639;-54
2023/12/03 16:38:28;;;;;;;5.43;3.80;;;;;;;;;;5066577;28;20440;-51
2023/12/03 16:40:56;;;;;;;5.10;3.23;;;;;;;;;;5066751;28;20469;-53
2023/12/03 16:43:23;;;;;;;4.10;3.17;;;;;;;;;;5067027;28;20455;-51
2023/12/03 16:45:50;;;;;;;3.63;2.60;;;;;;;;;;5066384;28;20531;-51
2023/12/03 16:48:21;;;;;;;3.50;2.97;;;;;;;;;;5066420;28;20494;-53
2023/12/03 16:50:49;;;;;;;3.27;2.70;;;;;;;;;;5065439;28;20494;-54
2023/12/03 16:53:17;;;;;;;3.63;2.77;;;;;;;;;;5067063;28;20494;-53
2023/12/03 16:55:45;;;;;;;3.47;3.00;;;;;;;;;;5066934;28;20534;-51
2023/12/03 17:00:46;;;;;;;3.90;3.43;;;;;;;;;;5087078;27;20574;-53
2023/12/03 17:03:13;;;;;;;3.20;2.00;;;;;;;;;;5068955;28;20502;-53
2023/12/03 17:05:40;;;;;;;3.40;2.23;;;;;;;;;;5059658;28;20466;-54
2023/12/03 17:08:08;;;;;;;3.20;1.90;;;;;;;;;;5046721;28;20942;-53
2023/12/03 17:10:35;;;;;;;4.80;2.87;;;;;;;;;;5046771;28;20437;-53
2023/12/03 17:13:03;;;;;;;3.90;2.80;;;;;;;;;;5046522;28;20496;-53
2023/12/03 17:15:32;;;;;;;3.60;2.77;;;;;;;;;;5046730;28;20971;-53
2023/12/03 17:18:01;;;;;;;4.00;2.70;;;;;;;;;;5045903;28;21045;-55
2023/12/03 17:20:28;;;;;;;4.33;2.60;;;;;;;;;;5046860;28;20567;-53
2023/12/03 17:22:56;;;;;;;2.60;2.00;;;;;;;;;;5046404;28;20820;-54
2023/12/03 17:27:57;;;;;;;4.50;3.00;;;;;;;;;;5068270;27;20580;-52
2023/12/03 17:30:25;;;;;;;4.00;2.10;;;;;;;;;;5063663;28;20937;-53
2023/12/03 17:32:52;;;;;;;2.67;2.20;;;;;;;;;;5062250;28;20437;-54
2023/12/03 17:35:19;;;;;;;4.27;2.47;;;;;;;;;;5062677;28;20466;-53
2023/12/03 17:37:47;;;;;;;4.90;2.80;;;;;;;;;;5048190;28;20445;-55
2023/12/03 17:40:14;;;;;;;5.27;3.03;;;;;;;;;;5052550;28;20799;-53
2023/12/03 17:42:42;;;;;;;5.60;3.37;;;;;;;;;;5064547;28;20437;-53
2023/12/03 17:45:11;;;;;;;8.90;5.30;;;;;;;;;;5066346;28;20461;-53
2023/12/03 17:47:40;;;;;;;12.10;6.10;;;;;;;;;;5066834;28;20484;-51
2023/12/03 17:50:09;;;;;;;5.53;3.77;;;;;;;;;;5057299;28;20453;-53
2023/12/03 17:52:37;;;;;;;5.13;4.20;;;;;;;;;;5065953;28;20961;-54
2023/12/03 17:57:38;;;;;;;9.40;5.40;;;;;;;;;;5087061;27;20575;-54
2023/12/03 18:00:06;;;;;;;8.73;5.00;;;;;;;;;;5087913;28;20456;-51
2023/12/03 18:02:34;;;;;;;12.13;5.93;;;;;;;;;;5087455;28;20443;-52
2023/12/03 18:05:01;;;;;;;5.50;3.80;;;;;;;;;;5087164;28;20451;-52
2023/12/03 18:07:28;;;;;;;7.33;5.10;;;;;;;;;;5087476;28;20439;-51
2023/12/03 18:15:03;;;;;;;4.13;2.73;;;;;;;;;;5087417;27;21008;-52
2023/12/03 18:17:30;;;;;;;3.17;2.13;;;;;;;;;;5087664;28;20435;-53
2023/12/03 18:19:57;;;;;;;5.63;2.40;;;;;;;;;;5086954;28;20436;-52
2023/12/03 18:22:25;;;;;;;4.60;3.03;;;;;;;;;;5087522;28;20496;-53
2023/12/03 18:24:52;;;;;;;5.00;2.23;;;;;;;;;;5086600;28;20497;-54
2023/12/03 18:27:19;;;;;;;3.07;1.93;;;;;;;;;;5087461;28;20480;-52
2023/12/03 18:29:47;;;;;;;2.40;1.97;;;;;;;;;;5086300;28;20489;-53
2023/12/03 18:32:15;;;;;;;3.07;2.40;;;;;;;;;;5073681;28;20925;-52
2023/12/03 18:34:43;;;;;;;3.07;2.40;;;;;;;;;;5085947;28;20992;-52
2023/12/03 18:37:11;;;;;;;4.97;2.60;;;;;;;;;;5073730;28;20809;-52
2023/12/03 18:39:38;;;;;;;5.97;2.33;;;;;;;;;;5086885;28;20463;-53
2023/12/03 18:42:06;;;;;;;3.50;2.57;;;;;;;;;;5086361;28;20451;-53
2023/12/03 18:44:33;;;;;;;3.53;2.67;;;;;;;;;;5087384;28;20454;-53
2023/12/03 18:47:00;;;;;;;4.73;2.40;;;;;;;;;;5084928;28;20462;-52
2023/12/03 18:49:29;;;;;;;2.47;2.03;;;;;;;;;;5074461;28;20471;-53
2023/12/03 18:51:58;;;;;;;3.17;2.50;;;;;;;;;;5071247;28;20443;-52
2023/12/03 18:54:26;;;;;;;4.90;2.90;;;;;;;;;;5070187;28;20984;-53
2023/12/03 18:56:53;;;;;;;6.03;4.10;;;;;;;;;;5071913;28;20464;-53
2023/12/03 18:59:21;;;;;;;9.00;6.27;;;;;;;;;;5086072;28;20439;-53
2023/12/03 19:01:48;;;;;;;8.33;6.30;;;;;;;;;;5079423;28;20551;-53
2023/12/03 19:04:15;;;;;;;5.60;4.37;;;;;;;;;;5085758;28;20952;-53
2023/12/03 19:06:44;;;;;;;7.27;3.63;;;;;;;;;;5079382;28;20474;-52
2023/12/03 19:09:11;;;;;;;4.63;4.13;;;;;;;;;;5086091;28;20475;-53
2023/12/03 19:11:39;;;;;;;5.90;3.93;;;;;;;;;;5069819;28;20495;-53